Time;durP1;ratioP1;P1;durP2;ratioP2;P2;SDS_P1;SDS_P2;PMS_P1;PMS_P2;Temp;Humidity;BMP_temperature;BMP_pressure;BME280_temperature;BME280_humidity;BME280_pressure;Samples;Min_cycle;Max_cycle;Signal;HPM_P1;HPM_P2
2022/07/12 00:00:55;;;;;;;4.17;2.60;;;;;;;15.15;78.04;99248.75;5035609;28;20615;-49
2022/07/12 00:03:22;;;;;;;2.90;2.43;;;;;;;15.11;77.74;99253.50;5035355;28;20218;-50
2022/07/12 00:05:50;;;;;;;2.83;2.47;;;;;;;15.06;77.92;99253.19;5035706;28;20544;-49
2022/07/12 00:08:19;;;;;;;3.33;2.67;;;;;;;15.04;77.97;99252.53;5035504;28;20615;-50
2022/07/12 00:10:45;;;;;;;5.43;3.10;;;;;;;15.03;78.23;99256.13;5035448;28;20190;-49
2022/07/12 00:13:12;;;;;;;3.03;2.73;;;;;;;15.07;78.54;99257.44;5035274;28;20203;-50
2022/07/12 00:15:40;;;;;;;2.50;2.30;;;;;;;15.04;78.44;99250.72;5035468;28;20180;-49
2022/07/12 00:18:07;;;;;;;3.27;2.40;;;;;;;15.08;78.02;99251.22;5035363;28;20238;-50
2022/07/12 00:20:33;;;;;;;2.87;2.33;;;;;;;15.09;78.95;99252.84;5035205;28;20218;-49
2022/07/12 00:23:00;;;;;;;3.70;2.57;;;;;;;15.03;78.99;99246.47;5035024;28;20215;-50
2022/07/12 00:25:29;;;;;;;3.10;2.80;;;;;;;15.00;78.88;99244.16;5035331;28;20206;-49
2022/07/12 00:28:15;;;;;;;2.80;2.57;;;;;;;15.00;78.76;99246.78;5035757;28;20333;-50
2022/07/12 00:30:42;;;;;;;3.10;2.80;;;;;;;15.09;79.00;99244.97;5035389;28;20578;-49
2022/07/12 00:33:09;;;;;;;2.57;2.37;;;;;;;15.05;78.96;99243.66;5034906;28;20207;-49
2022/07/12 00:35:37;;;;;;;3.33;2.13;;;;;;;15.05;79.16;99247.13;5035188;28;20184;-49
2022/07/12 00:38:04;;;;;;;3.67;2.70;;;;;;;15.03;78.97;99245.63;5034995;28;20242;-49
2022/07/12 00:40:33;;;;;;;2.77;2.40;;;;;;;15.05;79.05;99251.53;5034620;28;20281;-49
2022/07/12 00:43:00;;;;;;;4.00;2.70;;;;;;;15.08;79.27;99242.50;5016857;28;20219;-49
2022/07/12 00:45:45;;;;;;;3.60;2.60;;;;;;;15.02;79.26;99251.88;5035261;28;20203;-50
2022/07/12 00:48:13;;;;;;;4.13;2.97;;;;;;;14.95;79.81;99245.63;5035069;28;20180;-50
2022/07/12 00:50:40;;;;;;;3.33;2.60;;;;;;;14.94;80.05;99249.22;5034876;28;20183;-49
2022/07/12 00:53:09;;;;;;;6.07;2.67;;;;;;;14.96;80.98;99242.00;5034368;28;20236;-49
2022/07/12 00:55:37;;;;;;;6.67;2.83;;;;;;;14.97;80.91;99243.66;5034742;28;20198;-50
2022/07/12 00:58:04;;;;;;;3.40;2.53;;;;;;;14.95;80.82;99235.09;5034806;28;20233;-49
2022/07/12 01:00:31;;;;;;;3.40;2.30;;;;;;;14.95;80.73;99229.84;5016603;28;20206;-49
2022/07/12 01:03:01;;;;;;;3.00;2.70;;;;;;;14.98;80.48;99247.91;5034342;28;20211;-49
2022/07/12 01:05:29;;;;;;;3.57;2.70;;;;;;;15.17;79.02;99237.06;5034500;28;20187;-49
2022/07/12 01:07:56;;;;;;;4.33;2.67;;;;;;;15.23;78.71;99243.50;5034593;28;20253;-49
2022/07/12 01:10:24;;;;;;;2.83;2.43;;;;;;;15.22;79.15;99231.34;5034527;28;20184;-49
2022/07/12 01:12:53;;;;;;;2.60;2.40;;;;;;;15.18;79.27;99236.09;5033971;28;20214;-49
2022/07/12 01:15:22;;;;;;;4.07;2.67;;;;;;;15.18;78.92;99235.28;5034483;28;20189;-49
2022/07/12 01:17:49;;;;;;;3.60;2.60;;;;;;;15.15;79.43;99235.63;5034446;28;20196;-49
2022/07/12 01:20:17;;;;;;;3.83;2.70;;;;;;;15.12;79.07;99236.75;5016520;28;20247;-49
2022/07/12 01:22:53;;;;;;;3.23;2.60;;;;;;;15.18;79.11;99237.91;5020262;28;20215;-49
2022/07/12 01:25:20;;;;;;;3.93;2.50;;;;;;;15.39;77.79;99237.38;5002170;28;20205;-50
2022/07/12 01:27:47;;;;;;;3.97;2.33;;;;;;;15.53;76.53;99227.16;5022346;28;20192;-49
2022/07/12 01:30:14;;;;;;;4.60;2.80;;;;;;;15.64;76.13;99234.72;5014240;28;20556;-49
2022/07/12 01:32:41;;;;;;;2.67;2.47;;;;;;;15.75;75.39;99230.88;5014093;28;20228;-49
2022/07/12 01:35:08;;;;;;;5.47;2.70;;;;;;;15.78;75.04;99234.00;5014243;28;20188;-49
2022/07/12 01:37:56;;;;;;;3.00;2.33;;;;;;;15.79;75.65;99230.38;5014499;28;20202;-49
2022/07/12 01:40:23;;;;;;;3.00;2.30;;;;;;;15.78;75.31;99230.53;5014057;28;20193;-49
2022/07/12 01:42:51;;;;;;;3.03;2.60;;;;;;;15.76;74.76;99230.72;5013666;28;20212;-49
2022/07/12 01:45:18;;;;;;;2.57;2.30;;;;;;;15.68;75.36;99228.13;5014088;28;20189;-49
2022/07/12 01:47:45;;;;;;;2.73;2.47;;;;;;;15.64;76.07;99242.59;5014003;28;20190;-49
2022/07/12 01:50:12;;;;;;;2.50;2.30;;;;;;;15.54;76.71;99237.50;5013639;28;20258;-49
2022/07/12 01:52:41;;;;;;;3.80;2.30;;;;;;;15.48;77.25;99244.28;5013191;28;20212;-49
2022/07/12 01:55:10;;;;;;;3.03;2.40;;;;;;;15.42;78.03;99244.09;5013936;28;20188;-50
2022/07/12 01:57:38;;;;;;;4.00;2.40;;;;;;;15.28;77.87;99238.56;5013905;28;20195;-49
2022/07/12 02:00:07;;;;;;;2.97;2.67;;;;;;;15.20;78.51;99241.19;5013917;28;20591;-49
2022/07/12 02:02:34;;;;;;;4.13;2.87;;;;;;;15.23;78.52;99240.88;5013268;28;20267;-49
2022/07/12 02:05:02;;;;;;;3.20;2.50;;;;;;;15.12;79.50;99238.56;5013663;28;20220;-49
2022/07/12 02:07:29;;;;;;;2.70;2.13;;;;;;;15.05;79.16;99247.13;5013606;28;20186;-49
2022/07/12 02:09:57;;;;;;;3.37;2.80;;;;;;;14.98;79.76;99246.13;5013472;28;20192;-49
2022/07/12 02:12:26;;;;;;;3.60;2.40;;;;;;;14.89;79.79;99252.38;5013198;28;20856;-49
2022/07/12 02:14:52;;;;;;;4.50;2.40;;;;;;;14.82;80.11;99241.69;5013557;28;20206;-49
2022/07/12 02:17:20;;;;;;;3.00;2.70;;;;;;;14.75;80.18;99244.13;5013400;28;20219;-49
2022/07/12 02:19:47;;;;;;;3.27;2.63;;;;;;;14.68;80.77;99247.56;5013546;28;20187;-49
2022/07/12 02:22:14;;;;;;;2.90;2.63;;;;;;;14.68;80.52;99240.47;5013021;28;20227;-49
2022/07/12 02:24:41;;;;;;;3.70;3.10;;;;;;;14.58;81.08;99239.81;5013198;28;20191;-49
2022/07/12 02:27:09;;;;;;;3.50;2.83;;;;;;;14.52;81.02;99241.28;5013411;28;20181;-49
2022/07/12 02:29:37;;;;;;;2.53;2.33;;;;;;;14.52;82.15;99243.91;5013298;28;20271;-49
2022/07/12 02:32:04;;;;;;;3.97;2.70;;;;;;;14.53;82.31;99256.06;4995243;28;20215;-49
2022/07/12 02:34:31;;;;;;;4.00;2.80;;;;;;;14.45;82.33;99245.53;5013236;28;20193;-49
2022/07/12 02:36:59;;;;;;;5.00;2.70;;;;;;;14.50;82.50;99248.50;4995501;28;20200;-49
2022/07/12 02:39:26;;;;;;;3.50;2.90;;;;;;;14.47;82.50;99246.19;5013101;28;20202;-49
2022/07/12 02:41:53;;;;;;;3.30;2.70;;;;;;;14.44;82.19;99246.53;5013039;28;20212;-49
2022/07/12 02:44:20;;;;;;;3.97;2.67;;;;;;;14.34;82.40;99249.28;5013061;28;20195;-49
2022/07/12 02:46:48;;;;;;;2.93;2.70;;;;;;;14.24;83.29;99249.41;5012952;28;20667;-49
2022/07/12 02:49:15;;;;;;;3.33;2.70;;;;;;;14.24;83.62;99248.63;5013028;28;20191;-49
2022/07/12 02:51:43;;;;;;;3.50;2.83;;;;;;;14.24;84.03;99243.34;5013197;28;20187;-49
2022/07/12 02:54:09;;;;;;;3.07;2.57;;;;;;;14.28;84.57;99247.31;5012626;28;20214;-49
2022/07/12 02:56:36;;;;;;;3.83;2.60;;;;;;;14.24;84.51;99257.28;5012953;28;20722;-49
2022/07/12 02:59:03;;;;;;;3.60;2.73;;;;;;;14.23;84.17;99267.97;5013144;28;20199;-49
2022/07/12 03:01:30;;;;;;;2.80;2.60;;;;;;;14.29;84.80;99276.03;5012952;28;20219;-49
2022/07/12 03:03:58;;;;;;;4.73;2.90;;;;;;;14.21;84.42;99267.31;5012750;28;20208;-49
2022/07/12 03:06:26;;;;;;;5.60;3.07;;;;;;;14.29;84.60;99264.72;5012951;28;20724;-49
2022/07/12 03:08:52;;;;;;;3.10;2.80;;;;;;;14.22;84.36;99254.00;5012922;28;20191;-49
2022/07/12 03:11:20;;;;;;;3.70;2.43;;;;;;;14.24;84.82;99256.50;4995133;28;20199;-49
2022/07/12 03:13:47;;;;;;;3.27;2.57;;;;;;;14.27;84.91;99259.59;5012518;28;20225;-49
2022/07/12 03:16:14;;;;;;;4.17;2.50;;;;;;;14.19;85.49;99264.81;5012899;28;20194;-49
2022/07/12 03:18:43;;;;;;;3.30;2.70;;;;;;;14.15;85.49;99261.72;5012798;28;20274;-49
2022/07/12 03:21:12;;;;;;;3.90;3.03;;;;;;;14.21;85.42;99259.44;5012939;28;20245;-49
2022/07/12 03:23:39;;;;;;;4.07;2.80;;;;;;;14.20;85.34;99260.41;5012520;28;20567;-49
2022/07/12 03:26:07;;;;;;;5.10;2.80;;;;;;;14.20;85.64;99255.97;5012493;28;20211;-49
2022/07/12 03:28:34;;;;;;;4.50;3.57;;;;;;;14.22;85.77;99256.63;5012627;28;20957;-49
2022/07/12 03:31:02;;;;;;;3.93;2.97;;;;;;;14.29;85.17;99254.22;5012759;28;20196;-49
2022/07/12 03:33:29;;;;;;;3.27;2.80;;;;;;;14.28;85.17;99258.63;5012402;28;20294;-49
2022/07/12 03:35:56;;;;;;;4.07;3.23;;;;;;;14.36;84.99;99251.75;5012501;28;20196;-49
2022/07/12 03:38:24;;;;;;;3.37;3.00;;;;;;;14.52;84.11;99249.16;5012516;28;20650;-49
2022/07/12 03:40:52;;;;;;;3.53;3.00;;;;;;;14.57;83.65;99252.13;5012376;28;20211;-49
2022/07/12 03:43:19;;;;;;;3.20;2.90;;;;;;;14.60;83.15;99248.34;5012085;28;20216;-49
2022/07/12 03:45:45;;;;;;;3.47;3.17;;;;;;;14.55;83.21;99251.47;5012561;28;20190;-49
2022/07/12 03:48:13;;;;;;;7.23;3.00;;;;;;;14.63;84.04;99261.16;5012373;28;20702;-49
2022/07/12 03:50:39;;;;;;;3.33;2.80;;;;;;;14.55;84.30;99258.53;5011870;28;20591;-49
2022/07/12 03:53:06;;;;;;;5.43;3.37;;;;;;;14.52;84.23;99266.72;5011809;28;20615;-49
2022/07/12 03:55:35;;;;;;;5.00;3.30;;;;;;;14.50;84.32;99266.91;5020321;28;20202;-49
2022/07/12 03:58:03;;;;;;;5.53;3.43;;;;;;;14.42;84.87;99272.94;5020436;28;20200;-49
2022/07/12 04:00:29;;;;;;;4.00;3.10;;;;;;;14.42;84.28;99277.38;5020341;28;20724;-49
2022/07/12 04:02:56;;;;;;;3.70;3.17;;;;;;;14.59;83.69;99273.81;5016252;28;20720;-49
2022/07/12 04:05:25;;;;;;;3.33;2.97;;;;;;;14.61;84.32;99279.72;5015483;28;20199;-50
2022/07/12 04:07:53;;;;;;;3.97;3.20;;;;;;;14.59;83.99;99284.31;5019655;28;20218;-49
2022/07/12 04:10:21;;;;;;;4.53;3.30;;;;;;;14.61;84.09;99281.53;5020324;28;20270;-49
2022/07/12 04:12:50;;;;;;;6.17;3.03;;;;;;;14.71;83.72;99286.69;5012063;28;20238;-49
2022/07/12 04:15:17;;;;;;;3.57;2.90;;;;;;;14.69;83.56;99286.00;5022120;28;20195;-49
2022/07/12 04:17:44;;;;;;;3.93;3.40;;;;;;;14.70;83.71;99292.91;5001518;28;20586;-49
2022/07/12 04:20:12;;;;;;;4.27;2.93;;;;;;;14.75;84.11;99288.81;5020798;28;20662;-49
2022/07/12 04:22:39;;;;;;;4.13;2.70;;;;;;;14.85;83.66;99286.03;5023133;28;20579;-49
2022/07/12 04:25:07;;;;;;;3.87;3.17;;;;;;;14.87;83.59;99291.94;5021321;28;20221;-49
2022/07/12 04:27:35;;;;;;;4.23;3.50;;;;;;;14.86;83.59;99298.19;5025385;28;20190;-49
2022/07/12 04:30:04;;;;;;;3.00;2.63;;;;;;;14.88;83.60;99298.03;5020821;28;20200;-50
2022/07/12 04:32:32;;;;;;;3.33;2.93;;;;;;;14.87;83.63;99310.34;5018418;28;20226;-50
2022/07/12 04:34:59;;;;;;;6.17;3.20;;;;;;;14.90;83.67;99299.50;5021884;28;20666;-49
2022/07/12 04:37:26;;;;;;;3.83;2.97;;;;;;;14.93;83.79;99302.78;5023329;28;20204;-49
2022/07/12 04:39:53;;;;;;;3.30;3.00;;;;;;;14.95;83.36;99287.69;5005479;28;20224;-49
2022/07/12 04:42:20;;;;;;;3.30;3.00;;;;;;;14.96;83.47;99300.69;5022516;28;20223;-49
2022/07/12 04:44:47;;;;;;;3.17;2.87;;;;;;;14.94;83.58;99292.13;5018487;28;20199;-49
2022/07/12 04:47:16;;;;;;;4.90;3.53;;;;;;;14.97;83.93;99293.59;5019491;28;20200;-49
2022/07/12 04:49:43;;;;;;;3.13;2.83;;;;;;;15.01;84.38;99301.00;5023159;28;20194;-49
2022/07/12 04:52:09;;;;;;;4.00;3.60;;;;;;;15.02;84.37;99310.53;5023033;28;20522;-50
2022/07/12 04:54:36;;;;;;;3.80;2.90;;;;;;;15.03;84.28;99306.09;5022947;28;20202;-49
2022/07/12 04:57:04;;;;;;;3.40;3.10;;;;;;;15.08;84.17;99303.78;5020355;28;20567;-49
2022/07/12 04:59:32;;;;;;;3.40;3.00;;;;;;;15.09;83.87;99304.63;5018134;28;20219;-49
2022/07/12 05:01:58;;;;;;;4.83;3.47;;;;;;;15.15;83.91;99299.53;5026125;28;20199;-49
2022/07/12 05:04:27;;;;;;;3.27;2.93;;;;;;;15.21;83.53;99300.69;5034697;28;20277;-49
2022/07/12 05:06:54;;;;;;;3.57;3.20;;;;;;;15.27;84.07;99301.84;5034450;28;20544;-49
2022/07/12 05:09:22;;;;;;;3.60;2.93;;;;;;;15.31;84.03;99298.72;5034642;28;20184;-49
2022/07/12 05:11:49;;;;;;;3.20;2.90;;;;;;;15.29;84.25;99303.31;5034544;28;20188;-49
2022/07/12 05:14:16;;;;;;;4.47;3.13;;;;;;;15.31;84.47;99311.03;5016338;28;20216;-49
2022/07/12 05:16:43;;;;;;;4.13;3.30;;;;;;;15.34;84.79;99308.91;5016425;28;20550;-49
2022/07/12 05:19:10;;;;;;;3.20;2.90;;;;;;;15.33;84.84;99314.31;5034472;28;20590;-49
2022/07/12 05:21:56;;;;;;;4.90;2.97;;;;;;;15.37;84.44;99310.38;5034433;28;20297;-50
2022/07/12 05:24:24;;;;;;;5.03;3.10;;;;;;;15.43;84.50;99312.34;5016311;28;20210;-49
2022/07/12 05:26:51;;;;;;;3.73;3.40;;;;;;;15.50;83.57;99313.34;5032967;28;20184;-49
2022/07/12 05:29:18;;;;;;;4.90;3.10;;;;;;;15.55;83.55;99312.03;5034457;28;20226;-49
2022/07/12 05:31:44;;;;;;;4.17;2.80;;;;;;;15.59;83.46;99315.97;5034068;28;20240;-49
2022/07/12 05:34:11;;;;;;;4.33;3.53;;;;;;;15.65;83.82;99324.00;5033650;28;20258;-49
2022/07/12 05:36:39;;;;;;;4.73;3.73;;;;;;;15.69;83.46;99324.50;5033971;28;20214;-49
2022/07/12 05:39:07;;;;;;;5.27;3.20;;;;;;;15.75;83.36;99325.63;5034121;28;20184;-49
2022/07/12 05:41:34;;;;;;;3.90;2.90;;;;;;;15.81;83.10;99330.22;5033702;28;20253;-49
2022/07/12 05:44:02;;;;;;;3.63;3.10;;;;;;;15.88;82.75;99323.34;5004366;28;20405;-50
2022/07/12 05:46:29;;;;;;;3.30;3.00;;;;;;;15.89;82.77;99330.25;4976804;28;20198;-48
2022/07/12 05:48:55;;;;;;;5.20;2.87;;;;;;;15.98;83.16;99338.13;5006982;28;20193;-49
2022/07/12 05:54:11;;;;;;;2.87;2.47;;;;;;;16.38;81.77;99350.34;5003478;28;20216;-49
2022/07/12 05:56:37;;;;;;;3.53;2.80;;;;;;;16.69;80.50;99351.34;5013853;28;20181;-48
2022/07/12 05:59:04;;;;;;;5.03;2.83;;;;;;;17.03;79.03;99352.00;5013829;28;20243;-48
2022/07/12 06:01:31;;;;;;;3.23;2.93;;;;;;;17.29;77.51;99361.41;5012809;28;20205;-51
2022/07/12 06:03:58;;;;;;;5.13;3.00;;;;;;;17.49;76.35;99356.47;5013182;28;20225;-51
2022/07/12 06:06:25;;;;;;;3.47;2.80;;;;;;;17.72;74.82;99353.78;5013483;28;20308;-50
2022/07/12 06:08:52;;;;;;;3.67;2.60;;;;;;;17.89;73.84;99367.66;5013433;28;20225;-48
2022/07/12 06:11:20;;;;;;;4.57;2.97;;;;;;;18.05;73.19;99369.31;5008933;28;20426;-49
2022/07/12 06:13:47;;;;;;;6.57;2.60;;;;;;;18.28;72.82;99371.91;5009491;28;20207;-49
2022/07/12 06:16:14;;;;;;;2.63;2.40;;;;;;;18.50;72.79;99382.56;5012324;28;20272;-48
2022/07/12 06:18:40;;;;;;;3.03;2.60;;;;;;;18.73;71.91;99377.13;5012172;28;20186;-49
2022/07/12 06:21:07;;;;;;;2.60;2.20;;;;;;;18.97;70.65;99377.84;5009500;28;20223;-49
2022/07/12 06:23:34;;;;;;;4.07;3.30;;;;;;;19.09;68.41;99378.16;5011560;28;20241;-48
2022/07/12 06:26:01;;;;;;;5.00;3.77;;;;;;;19.19;67.03;99388.41;5009055;28;20198;-48
2022/07/12 06:28:30;;;;;;;6.60;3.77;;;;;;;19.20;66.48;99383.94;5007027;28;20219;-48
2022/07/12 06:30:56;;;;;;;4.47;3.57;;;;;;;19.27;66.38;99384.84;5012168;28;20261;-49
2022/07/12 06:33:23;;;;;;;5.73;3.73;;;;;;;19.33;66.38;99387.53;5011694;28;20642;-49
2022/07/12 06:35:50;;;;;;;3.53;3.00;;;;;;;19.34;65.68;99385.72;5009171;28;20186;-49
2022/07/12 06:38:35;;;;;;;5.57;3.80;;;;;;;19.35;66.35;99383.88;5010519;28;20256;-49
2022/07/12 06:41:02;;;;;;;4.80;3.90;;;;;;;19.42;65.64;99387.41;5012011;28;20195;-49
2022/07/12 06:43:31;;;;;;;6.27;3.20;;;;;;;19.47;65.32;99395.59;5021662;28;20621;-46
2022/07/12 06:45:58;;;;;;;3.80;3.47;;;;;;;19.60;67.54;99390.44;5032407;28;20186;-48
2022/07/12 06:48:25;;;;;;;5.77;3.40;;;;;;;19.79;66.28;99398.72;5032525;28;20259;-48
2022/07/12 06:50:52;;;;;;;5.63;3.80;;;;;;;19.88;64.94;99389.63;5032287;28;20532;-48
2022/07/12 06:53:20;;;;;;;6.20;3.47;;;;;;;19.97;64.64;99397.47;5031943;28;20289;-50
2022/07/12 06:55:46;;;;;;;6.47;3.50;;;;;;;19.89;64.77;99396.59;5000349;28;20197;-48
2022/07/12 06:58:13;;;;;;;6.97;3.53;;;;;;;19.98;64.76;99396.44;5020759;28;20198;-48
2022/07/12 07:00:42;;;;;;;5.80;3.60;;;;;;;20.17;64.21;99409.00;5022374;28;20202;-49
2022/07/12 07:03:10;;;;;;;5.20;3.70;;;;;;;20.28;64.29;99412.13;5018670;28;20313;-48
2022/07/12 07:05:38;;;;;;;4.40;3.57;;;;;;;20.41;63.80;99417.50;5024302;28;20196;-49
2022/07/12 07:08:06;;;;;;;3.67;2.73;;;;;;;20.48;63.37;99407.75;5032681;28;20249;-48
2022/07/12 07:10:33;;;;;;;4.77;3.00;;;;;;;20.63;62.74;99417.41;5033052;28;20275;-48
2022/07/12 07:12:59;;;;;;;7.63;2.83;;;;;;;20.63;62.35;99420.06;5006062;28;20238;-48
2022/07/12 07:15:26;;;;;;;5.37;2.63;;;;;;;20.59;62.45;99416.16;5024077;28;20249;-48
2022/07/12 07:17:56;;;;;;;4.40;2.70;;;;;;;20.67;62.80;99410.69;5033090;28;20194;-48
2022/07/12 07:20:23;;;;;;;4.17;3.00;;;;;;;20.75;63.05;99412.34;5032315;28;20724;-48
2022/07/12 07:23:10;;;;;;;5.87;2.77;;;;;;;20.88;62.45;99415.06;5032200;28;20221;-48
2022/07/12 07:25:37;;;;;;;3.00;2.67;;;;;;;21.03;61.64;99416.75;5032780;28;20563;-47
2022/07/12 07:28:04;;;;;;;5.10;2.83;;;;;;;21.06;61.80;99411.88;5032406;28;20290;-48
2022/07/12 07:33:17;;;;;;;7.10;3.03;;;;;;;21.12;62.20;99420.88;5031857;28;20209;-48
2022/07/12 07:35:45;;;;;;;9.23;4.20;;;;;;;21.20;61.26;99426.00;5032191;28;20279;-47
2022/07/12 07:38:12;;;;;;;7.07;3.30;;;;;;;21.31;61.28;99426.44;5032135;28;20195;-48
2022/07/12 07:40:38;;;;;;;4.77;3.20;;;;;;;21.33;60.81;99425.19;5032291;28;20197;-48
2022/07/12 07:43:05;;;;;;;3.33;2.70;;;;;;;21.35;61.04;99428.47;5024604;28;20235;-47
2022/07/12 07:45:33;;;;;;;4.47;2.77;;;;;;;21.53;61.22;99427.06;5004394;28;20247;-48
2022/07/12 07:48:00;;;;;;;6.53;2.90;;;;;;;21.41;60.68;99423.38;5003325;28;20422;-48
2022/07/12 07:50:29;;;;;;;3.80;2.63;;;;;;;21.53;60.93;99414.63;5008596;28;20193;-48
2022/07/12 07:52:56;;;;;;;2.70;2.00;;;;;;;21.70;59.96;99419.56;5012903;28;20221;-48
2022/07/12 07:55:23;;;;;;;3.13;2.20;;;;;;;21.74;59.92;99419.94;5012960;28;20197;-48
2022/07/12 07:57:50;;;;;;;4.30;2.10;;;;;;;21.86;59.58;99422.81;5015652;28;20215;-48
2022/07/12 08:00:17;;;;;;;4.17;2.17;;;;;;;22.01;59.19;99420.75;5012052;28;20246;-48
2022/07/12 08:02:45;;;;;;;3.17;1.67;;;;;;;21.96;57.69;99421.38;5009483;28;20219;-47
2022/07/12 08:05:32;;;;;;;4.53;2.20;;;;;;;21.91;60.61;99420.34;5013972;28;20564;-48
2022/07/12 08:07:59;;;;;;;3.33;2.10;;;;;;;21.96;58.30;99416.06;5017895;28;20200;-47
2022/07/12 08:10:26;;;;;;;2.00;1.80;;;;;;;22.02;56.70;99414.41;5023676;28;20223;-49
2022/07/12 08:12:53;;;;;;;3.53;1.50;;;;;;;22.20;55.25;99403.16;5026524;28;20567;-49
2022/07/12 08:15:21;;;;;;;2.30;1.27;;;;;;;22.42;53.87;99411.69;5033341;28;20255;-48
2022/07/12 08:17:47;;;;;;;4.10;1.50;;;;;;;22.53;52.25;99422.72;5035220;28;20191;-49
2022/07/12 08:20:14;;;;;;;1.57;1.30;;;;;;;22.67;49.76;99421.66;5035189;28;20192;-49
2022/07/12 08:22:45;;;;;;;1.50;1.40;;;;;;;22.74;47.82;99423.47;5034866;28;20604;-49
2022/07/12 08:25:12;;;;;;;3.33;1.50;;;;;;;22.78;47.02;99424.69;5035511;28;20182;-49
2022/07/12 08:27:40;;;;;;;1.53;1.30;;;;;;;22.94;47.44;99431.34;5035269;28;20187;-49
2022/07/12 08:30:08;;;;;;;1.60;1.50;;;;;;;23.09;46.08;99423.91;5035621;28;20194;-49
2022/07/12 08:32:35;;;;;;;2.30;1.30;;;;;;;23.10;45.33;99428.22;5034694;28;20262;-49
2022/07/12 08:35:02;;;;;;;3.07;1.40;;;;;;;22.84;43.68;99427.31;5035283;28;20190;-49
2022/07/12 08:37:29;;;;;;;2.00;1.50;;;;;;;23.09;45.24;99429.25;5035173;28;20186;-49
2022/07/12 08:39:58;;;;;;;1.53;1.20;;;;;;;23.12;47.41;99426.16;5034744;28;20201;-48
2022/07/12 08:42:24;;;;;;;1.80;1.20;;;;;;;23.27;48.55;99430.41;5034697;28;20214;-49
2022/07/12 08:44:55;;;;;;;2.77;1.30;;;;;;;23.09;48.38;99434.56;5034869;28;20217;-48
2022/07/12 08:47:22;;;;;;;3.50;1.10;;;;;;;22.99;48.30;99432.34;5034521;28;20275;-49
2022/07/12 08:50:11;;;;;;;2.60;1.30;;;;;;;23.00;48.18;99433.19;5034893;28;20278;-49
2022/07/12 08:52:41;;;;;;;1.23;1.00;;;;;;;23.20;47.87;99426.94;5034860;28;20744;-49
2022/07/12 08:55:19;;;;;;;1.40;0.90;;;;;;;23.17;47.70;99420.16;5034595;28;20273;-49
2022/07/12 08:57:47;;;;;;;16.77;1.03;;;;;;;23.31;48.01;99425.44;5034677;28;20191;-49
2022/07/12 09:00:15;;;;;;;2.87;0.77;;;;;;;23.33;47.07;99426.03;5034435;28;20234;-49
2022/07/12 09:02:48;;;;;;;1.93;0.73;;;;;;;23.21;48.07;99421.38;5033668;28;20471;-49
2022/07/12 09:05:16;;;;;;;1.13;0.90;;;;;;;23.23;47.49;99413.22;5035121;28;20243;-49
2022/07/12 09:07:44;;;;;;;1.60;1.13;;;;;;;23.50;46.26;99424.50;5034738;28;20248;-49
2022/07/12 09:10:12;;;;;;;1.90;1.17;;;;;;;23.69;45.60;99417.38;5034737;28;20656;-49
2022/07/12 09:12:41;;;;;;;2.70;1.20;;;;;;;23.52;45.30;99425.09;5034647;28;20210;-50
2022/07/12 09:15:16;;;;;;;1.10;1.00;;;;;;;23.47;45.38;99424.94;5035252;28;20193;-49
2022/07/12 09:17:56;;;;;;;1.33;1.10;;;;;;;23.72;45.42;99427.59;5034981;28;20217;-49
2022/07/12 09:20:25;;;;;;;1.33;1.03;;;;;;;23.78;46.36;99427.75;5034840;28;20185;-49
2022/07/12 09:22:54;;;;;;;2.70;1.17;;;;;;;23.79;45.34;99427.56;5034822;28;20238;-49
2022/07/12 09:25:22;;;;;;;1.30;0.90;;;;;;;23.73;46.09;99431.91;5034772;28;20209;-50
2022/07/12 09:27:54;;;;;;;4.53;1.10;;;;;;;23.86;46.09;99427.50;5034885;28;20670;-50
2022/07/12 09:30:23;;;;;;;1.43;1.00;;;;;;;24.10;45.29;99431.19;5034470;28;20220;-49
2022/07/12 09:38:27;;;;;;;3.23;1.10;;;;;;;23.86;44.20;99435.50;5034647;28;20199;-49
2022/07/12 09:40:55;;;;;;;2.13;1.00;;;;;;;23.95;44.73;99444.00;5034365;28;20279;-49
2022/07/12 09:43:24;;;;;;;1.20;0.90;;;;;;;23.81;44.73;99444.16;5033859;28;20207;-50
2022/07/12 09:45:51;;;;;;;1.77;1.00;;;;;;;23.73;45.59;99431.91;5016481;28;20205;-49
2022/07/12 09:48:20;;;;;;;1.30;1.00;;;;;;;23.81;45.39;99432.66;5034108;28;20264;-49
2022/07/12 09:50:48;;;;;;;1.37;1.20;;;;;;;23.96;44.97;99434.97;5034470;28;20655;-50
2022/07/12 09:53:21;;;;;;;1.97;1.10;;;;;;;23.94;44.26;99439.72;5016002;28;20221;-49
2022/07/12 09:55:52;;;;;;;1.47;1.20;;;;;;;23.90;43.96;99436.69;5016158;28;20199;-49
2022/07/12 09:58:24;;;;;;;1.30;1.20;;;;;;;23.99;44.30;99437.25;5034181;28;20186;-49
2022/07/12 10:00:53;;;;;;;1.87;1.30;;;;;;;24.12;43.94;99425.66;5033844;28;20187;-49
2022/07/12 10:03:22;;;;;;;1.67;1.20;;;;;;;24.13;43.68;99430.75;5033495;28;20230;-49
2022/07/12 10:05:51;;;;;;;2.00;1.20;;;;;;;24.13;43.43;99430.75;5033686;28;20600;-51
2022/07/12 10:08:19;;;;;;;1.20;1.10;;;;;;;24.11;43.92;99430.16;5033620;28;20188;-50
2022/07/12 10:10:47;;;;;;;1.40;1.30;;;;;;;24.17;43.52;99428.47;5033485;28;20187;-50
2022/07/12 10:13:15;;;;;;;2.27;1.33;;;;;;;24.32;42.90;99418.25;5014722;28;20221;-49
2022/07/12 10:15:46;;;;;;;2.33;1.17;;;;;;;24.42;43.30;99435.56;5033587;28;20262;-50
2022/07/12 10:18:18;;;;;;;3.70;1.10;;;;;;;24.38;42.42;99435.22;5033930;28;20747;-52
2022/07/12 10:20:46;;;;;;;1.13;1.03;;;;;;;24.37;41.87;99432.78;5033444;28;20241;-49
2022/07/12 10:23:34;;;;;;;1.30;1.00;;;;;;;24.41;41.85;99425.94;5032906;28;20302;-49
2022/07/12 10:26:24;;;;;;;1.50;1.30;;;;;;;24.59;41.83;99430.47;5033249;28;20190;-50
2022/07/12 10:29:01;;;;;;;1.30;1.20;;;;;;;24.57;42.09;99433.34;5033182;28;20254;-50
2022/07/12 10:31:34;;;;;;;1.47;1.13;;;;;;;24.54;41.59;99423.13;5033255;28;20182;-50
2022/07/12 10:34:19;;;;;;;1.40;1.13;;;;;;;24.69;42.33;99417.41;5032808;28;20207;-49
2022/07/12 10:37:12;;;;;;;1.47;0.83;;;;;;;24.95;42.45;99414.66;5033159;28;20193;-49
2022/07/12 10:39:40;;;;;;;1.73;0.90;;;;;;;25.09;42.83;99413.44;5032828;28;20209;-49
2022/07/12 10:42:17;;;;;;;2.03;1.10;;;;;;;25.17;42.61;99413.13;5033028;28;20186;-49
2022/07/12 10:44:46;;;;;;;1.17;0.93;;;;;;;25.08;42.28;99424.34;5032774;28;20685;-50
2022/07/12 10:47:18;;;;;;;1.37;0.87;;;;;;;24.90;42.23;99416.16;5033039;28;20187;-49
2022/07/12 10:49:49;;;;;;;1.20;0.90;;;;;;;25.03;41.98;99422.34;5033055;28;20190;-49
2022/07/12 10:52:18;;;;;;;0.80;0.80;;;;;;;24.93;41.77;99416.75;5033083;28;20215;-50
2022/07/12 10:55:08;;;;;;;1.20;0.93;;;;;;;24.92;41.43;99418.56;5032846;28;20186;-49
2022/07/12 10:57:39;;;;;;;1.50;1.00;;;;;;;24.91;42.02;99412.44;5014920;28;20564;-49
2022/07/12 11:00:08;;;;;;;2.57;1.00;;;;;;;25.06;40.81;99416.56;5032615;28;20663;-49
2022/07/12 11:02:37;;;;;;;0.97;0.80;;;;;;;25.08;41.14;99416.31;5032330;28;20579;-50
2022/07/12 11:05:05;;;;;;;1.43;0.90;;;;;;;25.27;41.70;99425.09;5015179;28;20243;-50
2022/07/12 11:07:32;;;;;;;2.30;0.80;;;;;;;24.74;41.13;99420.28;5032459;28;20183;-49
2022/07/12 11:09:59;;;;;;;1.60;0.80;;;;;;;24.90;41.66;99408.13;5032857;28;20190;-50
2022/07/12 11:12:29;;;;;;;0.87;0.80;;;;;;;24.88;41.04;99412.88;5032497;28;20731;-50
2022/07/12 11:14:58;;;;;;;1.20;1.00;;;;;;;25.11;41.38;99407.84;5032728;28;20275;-50
2022/07/12 11:17:27;;;;;;;4.47;0.90;;;;;;;25.31;40.03;99407.59;5032581;28;20622;-50
2022/07/12 11:20:09;;;;;;;2.97;0.80;;;;;;;25.25;40.60;99400.47;5032812;28;20271;-49
2022/07/12 11:22:38;;;;;;;1.00;0.70;;;;;;;25.04;40.53;99398.06;5014707;28;20229;-50
2022/07/12 11:25:08;;;;;;;0.93;0.70;;;;;;;25.33;39.92;99392.94;5036782;28;20213;-50
2022/07/12 11:27:36;;;;;;;2.53;0.90;;;;;;;25.30;39.97;99405.94;5037050;28;20195;-50
2022/07/12 11:30:05;;;;;;;1.07;0.70;;;;;;;25.37;39.91;99395.16;5036531;28;20634;-50
2022/07/12 11:32:37;;;;;;;2.23;0.80;;;;;;;25.47;40.28;99400.78;5036680;28;20217;-51
2022/07/12 11:35:18;;;;;;;0.77;0.60;;;;;;;25.62;39.54;99405.66;5036805;28;20193;-49
2022/07/12 11:37:52;;;;;;;1.43;0.80;;;;;;;25.66;39.30;99401.47;5037204;28;20206;-50
2022/07/12 11:40:30;;;;;;;1.67;0.60;;;;;;;25.77;39.95;99399.88;5037359;28;20199;-52
2022/07/12 11:43:00;;;;;;;0.70;0.70;;;;;;;25.79;38.97;99408.50;5037754;28;20237;-52
2022/07/12 11:45:29;;;;;;;0.77;0.77;;;;;;;25.83;39.35;99409.66;5018870;28;20224;-49
2022/07/12 11:47:59;;;;;;;0.60;0.60;;;;;;;25.97;39.69;99396.03;5036215;28;20271;-50
2022/07/12 11:50:29;;;;;;;1.17;0.60;;;;;;;26.03;38.86;99398.59;5035943;28;20246;-50
2022/07/12 11:52:57;;;;;;;1.20;0.70;;;;;;;25.58;38.79;99396.47;5035699;28;20206;-50